ESCF/LPI METAR and TAF weather

Enter ICAO airport designator
Station Type Date Time Source
ESCF METAR 2022/11/27 07:50 UTC NOAA

ESCF 270750Z AUTO 08005KT 0800 R01/1700U R19/1400U FZFG OVC002/// M01/M01 Q1028


Station Type Date Time Source
ESCF Decoded METAR 2022/11/27 07:50 UTC NOAA

Linkoping / Malmen, Sweden (ESCF) 58-24N 015-31E 117M
Nov 27, 2022 - 02:50 AM EST / 2022.11.27 0750 UTC
Wind: from the E (080 degrees) at 6 MPH (5 KT):0
Visibility: less than 1 mile:0
Sky conditions: overcast
Weather: freezing fog
Temperature: 30 F (-1 C)
Windchill: 23 F (-5 C):1
Dew Point: 30 F (-1 C)
Relative Humidity: 100%
Pressure (altimeter): 30.36 in. Hg (1028 hPa)
ob: ESCF 270750Z AUTO 08005KT 0800 R01/1700U R19/1400U FZFG OVC002/// M01/M01 Q1028
cycle: 8

Station Type Date Time Source
ESCF TAF UTC NOAA

Error!

Example: see airport list